Latest Weather Observations for Walgett

IDN60801

Issued at 3:02 pm EDT Sunday 11 December 2016 (issued every 30 minutes, with the page automatically refreshed every 10 minutes)

About weather observations | Map of weather stations | Latest weather observations for NSW | Other Formats
Station Details ID: 052088 Name: WALGETT AIRPORT AWS Lat: -30.04 Lon: 148.12 Height: 133.0 m
Data from the previous 72 hours. | See also: Recent months at Walgett
Date/Time
EDT
Temp
°C
App
Temp
°C
Dew
Point
°C
Rel
Hum
%
Delta-T
°C
Wind Press
QNH
hPa
Press
MSL
hPa
Rain since
9am
mm
Dir  Spd
km/h
Gust
km/h
Spd
kts
Gust
kts
11/03:00pm 32.4 30.6 11.0 27 12.5 NE 11 20 6 11 1016.3 1015.6 0.0
11/02:30pm 32.5 31.5 12.2 29 12.1 N 9 24 5 13 1016.8 1016.1 0.0
11/02:00pm 32.8 31.4 13.4 30 11.7 N 13 24 7 13 1017.4 1016.6 0.0
11/01:30pm 31.9 29.8 13.6 32 11.1 N 17 28 9 15 1017.9 1017.1 0.0
11/01:00pm 32.2 30.9 14.8 35 10.7 NNE 15 24 8 13 1018.3 1017.5 0.0
11/12:30pm 31.0 29.5 14.2 36 10.2 N 15 30 8 16 1018.6 1017.8 0.0
11/12:00pm 29.7 27.3 13.9 38 9.5 NNE 19 33 10 18 1018.9 1018.1 0.0
11/11:30am 29.9 27.1 14.4 38 9.4 N 22 35 12 19 1019.1 1018.3 0.0
11/11:00am 30.1 28.1 15.4 41 9.1 NNE 20 32 11 17 1019.1 1018.3 0.0
11/10:30am 28.1 25.9 14.3 42 8.3 NNE 19 28 10 15 1019.2 1018.4 0.0
11/10:00am 27.9 24.9 14.9 45 7.9 NNE 24 35 13 19 1019.3 1018.5 0.0
11/09:30am 26.9 23.3 14.3 46 7.6 NNE 26 37 14 20 1019.5 1018.8 0.0
11/09:00am 26.7 23.6 14.5 47 7.3 NNE 24 39 13 21 1019.4 1018.7 0.0
11/08:30am 25.5 21.6 14.3 50 6.7 NNE 28 35 15 19 1019.3 1018.5 0.0
11/08:00am 24.6 20.9 13.8 51 6.4 NE 26 35 14 19 1019.0 1018.2 0.0
11/07:30am 24.0 19.9 13.8 53 6.0 NNE 28 35 15 19 1018.6 1017.8 0.0
11/07:00am 23.4 20.8 13.8 54 5.6 NE 20 26 11 14 1018.3 1017.5 0.0
11/06:30am 22.7 20.3 13.7 56 5.3 NE 19 24 10 13 1017.9 1017.1 0.0
11/06:00am 22.6 20.2 13.7 57 5.2 NE 19 28 10 15 1017.6 1016.8 0.0
11/05:30am 23.3 20.8 14.0 56 5.5 NNE 20 32 11 17 1017.0 1016.3 0.0
11/05:00am 22.5 20.0 12.2 52 5.9 NNE 17 24 9 13 1016.7 1016.0 0.0
11/04:30am 22.1 19.7 9.9 46 6.7 NNE 13 19 7 10 1016.5 1015.8 0.0
11/04:00am 21.4 18.9 9.6 47 6.4 NNE 13 24 7 13 1016.3 1015.6 0.0
11/03:30am 18.0 16.2 1.5 33 7.4 CALM 0 0 0 0 1016.1 1015.4 0.0
11/03:00am 18.8 16.6 0.9 30 8.0 SSE 2 7 1 4 1015.9 1015.2 0.0
11/02:30am 19.8 16.6 0.8 28 8.6 SE 7 11 4 6 1015.8 1015.1 0.0
11/02:00am 21.3 17.7 0.5 25 9.4 SE 9 13 5 7 1016.0 1015.3 0.0
11/01:30am 21.2 16.8 0.4 25 9.4 S 13 17 7 9 1015.8 1015.1 0.0
11/01:00am 21.2 16.5 1.0 26 9.2 SSE 15 19 8 10 1016.2 1015.5 0.0
11/12:30am 20.1 16.5 0.5 27 8.8 SSE 9 13 5 7 1016.5 1015.8 0.0
11/12:00am 20.2 16.7 1.1 28 8.7 SSE 9 11 5 6 1016.7 1016.0 0.0
 
Date/Time
EDT
Temp
°C
App
Temp
°C
Dew
Point
°C
Rel
Hum
%
Delta-T
°C
Wind Press
QNH
hPa
Press
MSL
hPa
Rain since
9am
mm
Dir  Spd
km/h
Gust
km/h
Spd
kts
Gust
kts
10/11:30pm 20.7 16.8 1.1 27 9.0 SSE 11 11 6 6 1016.7 1016.0 0.0
10/11:00pm 21.8 18.2 0.9 25 9.6 SSE 9 11 5 6 1016.7 1016.0 0.0
10/10:30pm 21.7 17.5 1.4 26 9.4 SSE 13 17 7 9 1016.5 1015.8 0.0
10/10:00pm 21.5 17.7 1.7 27 9.2 S 11 15 6 8 1016.2 1015.5 0.0
10/09:30pm 21.4 18.8 1.1 26 9.3 S 4 13 2 7 1015.9 1015.2 0.0
10/09:00pm 23.6 20.7 1.3 23 10.5 SSW 6 7 3 4 1015.5 1014.8 0.0
10/08:30pm 25.4 22.2 0.8 20 11.6 SW 7 9 4 5 1015.3 1014.6 0.0
10/08:00pm 29.4 26.8 3.4 19 13.2 SSW 6 7 3 4 1015.1 1014.4 0.0
10/07:30pm 31.9 28.9 1.1 14 15.3 W 6 9 3 5 1014.9 1014.2 0.0
10/07:00pm 32.4 28.9 1.5 14 15.5 WNW 9 15 5 8 1014.6 1013.9 0.0
10/06:30pm 32.3 28.3 0.4 13 15.7 NNW 11 17 6 9 1014.3 1013.6 0.0
10/06:00pm 32.4 29.2 0.5 13 15.7 N 7 13 4 7 1014.3 1013.6 0.0
10/05:30pm 32.9 29.0 0.9 13 15.9 NNE 11 20 6 11 1014.3 1013.6 0.0
10/05:00pm 33.0 29.7 -0.2 12 16.2 NW 7 17 4 9 1014.6 1013.9 0.0
10/04:30pm 32.9 28.6 0.9 13 15.9 WNW 13 19 7 10 1014.9 1014.2 0.0
10/04:00pm 31.6 26.8 -0.1 13 15.4 NNW 15 22 8 12 1015.3 1014.6 0.0
10/03:30pm 32.1 28.1 0.2 13 15.6 S 11 19 6 10 1015.7 1015.0 0.0
10/03:00pm 31.9 28.0 1.1 14 15.3 N 11 20 6 11 1016.2 1015.5 0.0
10/02:30pm 31.1 28.2 1.4 15 14.7 NNW 6 19 3 10 1016.8 1016.1 0.0
10/02:00pm 30.8 26.5 1.2 15 14.6 N 13 22 7 12 1017.3 1016.5 0.0
10/01:30pm 30.7 26.9 2.0 16 14.3 NNW 11 26 6 14 1017.7 1016.9 0.0
10/01:00pm 30.2 25.8 2.5 17 13.9 NNE 15 28 8 15 1018.4 1017.6 0.0
10/12:30pm 28.7 25.2 1.3 17 13.3 NNW 9 19 5 10 1018.7 1017.9 0.0
10/12:00pm 29.5 25.5 2.7 18 13.4 NNE 13 28 7 15 1019.1 1018.3 0.0
10/11:30am 27.9 22.9 1.4 18 12.9 NE 17 24 9 13 1019.5 1018.8 0.0
10/11:00am 27.7 23.2 2.0 19 12.5 ENE 15 24 8 13 1019.8 1019.1 0.0
10/10:30am 25.9 21.4 1.9 21 11.6 ENE 15 20 8 11 1020.0 1019.3 0.0
10/10:00am 25.5 20.8 2.9 23 11.0 ENE 17 28 9 15 1020.0 1019.3 0.0
10/09:30am 23.8 20.0 2.0 24 10.4 E 11 17 6 9 1020.2 1019.5 0.0
10/09:00am 22.7 19.0 2.2 26 9.7 ESE 11 17 6 9 1020.1 1019.4 0.0
10/08:30am 20.7 16.9 1.6 28 8.8 SE 11 15 6 8 1020.0 1019.3 0.0
10/08:00am 18.1 14.0 2.0 34 7.3 SE 13 17 7 9 1019.9 1019.2 0.0
10/07:30am 15.1 10.6 2.3 42 5.7 SSE 15 19 8 10 1019.4 1018.7 0.0
10/07:00am 13.2 10.6 3.3 51 4.4 S 6 9 3 5 1019.1 1018.3 0.0
10/06:30am 9.4 6.4 2.0 60 3.1 SSW 7 9 4 5 1018.6 1017.8 0.0
10/06:00am 9.2 6.2 2.1 61 3.0 S 7 9 4 5 1018.3 1017.5 0.0
10/05:30am 9.5 5.7 1.9 59 3.2 SSW 11 13 6 7 1018.2 1017.4 0.0
10/05:00am 9.1 5.3 1.5 59 3.2 S 11 13 6 7 1018.0 1017.2 0.0
10/04:30am 9.7 6.3 1.6 57 3.4 S 9 11 5 6 1017.8 1017.0 0.0
10/04:00am 9.9 6.4 1.5 56 3.5 SSE 9 11 5 6 1017.7 1016.9 0.0
10/03:30am 10.2 6.4 1.8 56 3.6 S 11 11 6 6 1017.6 1016.8 0.0
10/03:00am 10.3 6.8 1.4 54 3.7 S 9 11 5 6 1017.5 1016.7 0.0
10/02:30am 11.4 7.2 1.6 51 4.2 S 13 13 7 7 1017.4 1016.6 0.0
10/02:00am 12.1 8.3 1.7 49 4.5 S 11 15 6 8 1017.4 1016.6 0.0
10/01:30am 12.5 - - - - S 13 15 7 8 1017.5 1016.8 0.0
10/01:00am 13.6 9.7 1.3 43 5.3 S 11 13 6 7 1017.8 1017.0 0.0
10/12:30am 15.4 11.2 1.5 39 6.1 S 13 15 7 8 1018.1 1017.3 0.0
10/12:00am 16.7 12.1 1.6 36 6.7 S 15 19 8 10 1017.9 1017.1 0.0
 
Date/Time
EDT
Temp
°C
App
Temp
°C
Dew
Point
°C
Rel
Hum
%
Delta-T
°C
Wind Press
QNH
hPa
Press
MSL
hPa
Rain since
9am
mm
Dir  Spd
km/h
Gust
km/h
Spd
kts
Gust
kts
09/11:30pm 16.7 12.0 1.2 35 6.9 S 15 19 8 10 1017.8 1017.0 0.0
09/11:00pm 16.6 11.9 1.1 35 6.8 S 15 17 8 9 1017.8 1017.0 0.0
09/10:30pm 16.7 12.0 0.8 34 7.0 S 15 17 8 9 1017.6 1016.8 0.0
09/10:00pm 17.4 12.7 1.0 33 7.3 S 15 17 8 9 1017.3 1016.5 0.0
09/09:30pm 17.1 12.7 0.3 32 7.3 S 13 15 7 8 1016.8 1016.1 0.0
09/09:00pm 18.9 14.4 0.0 28 8.3 S 13 17 7 9 1016.4 1015.7 0.0
09/08:30pm 21.0 16.2 0.2 25 9.4 SSW 15 19 8 10 1016.1 1015.4 0.0
09/08:00pm 22.7 18.3 0.5 23 10.2 SSW 13 19 7 10 1015.6 1014.9 0.0
09/07:30pm 24.4 18.8 0.0 20 11.2 SSW 19 30 10 16 1015.3 1014.6 0.0
09/07:00pm 25.4 19.5 -0.6 18 11.9 S 20 28 11 15 1014.8 1014.1 0.0
09/06:30pm 26.1 20.1 -1.7 16 12.6 SSW 20 28 11 15 1014.3 1013.6 0.0
09/06:00pm 26.5 20.2 -1.3 16 12.7 SSW 22 35 12 19 1014.0 1013.3 0.0
09/05:30pm 26.6 20.3 -1.3 16 12.8 SSW 22 33 12 18 1013.8 1013.1 0.0
09/05:00pm 26.6 20.9 -0.4 17 12.6 SSW 19 32 10 17 1013.7 1013.0 0.0
09/04:30pm 26.4 20.4 0.9 19 12.1 SSW 22 37 12 20 1014.0 1013.3 0.0
09/04:00pm 26.1 21.5 1.4 20 11.8 SSW 15 28 8 15 1014.1 1013.4 0.0
09/03:30pm 27.1 22.0 2.9 21 12.0 SSW 19 37 10 20 1014.3 1013.6 0.0
09/03:00pm 26.0 20.1 2.0 21 11.6 SSW 22 33 12 18 1014.6 1013.9 0.0
09/02:30pm 25.2 19.2 1.3 21 11.4 SW 22 37 12 20 1014.7 1014.0 0.0
09/02:00pm 25.4 19.5 1.5 21 11.4 SW 22 37 12 20 1015.0 1014.3 0.0
09/01:30pm 25.6 19.9 2.9 23 11.1 SW 22 35 12 19 1015.1 1014.4 0.0
09/01:00pm 23.8 17.6 2.0 24 10.4 SW 24 35 13 19 1015.4 1014.7 0.0
09/12:30pm 24.2 18.5 2.9 25 10.3 SW 22 37 12 20 1015.5 1014.8 0.0
09/12:00pm 23.5 16.3 2.9 26 9.9 SW 30 44 16 24 1015.6 1014.9 0.0
09/11:30am 23.7 18.0 5.1 30 9.4 SW 24 41 13 22 1015.4 1014.7 0.0
09/11:00am 22.3 16.6 4.8 32 8.7 SW 24 35 13 19 1015.4 1014.7 0.0
09/10:30am 21.7 17.0 6.0 36 7.9 SSW 20 33 11 18 1015.4 1014.7 0.0
09/10:00am 20.7 14.9 6.3 39 7.3 SSW 26 37 14 20 1015.3 1014.6 0.0
09/09:30am 20.1 15.0 7.5 44 6.5 SSW 24 35 13 19 1015.2 1014.5 0.0
09/09:00am 19.3 13.4 7.7 47 6.0 S 28 39 15 21 1015.0 1014.3 2.2
09/08:30am 18.6 13.3 8.6 52 5.2 SSW 26 35 14 19 1014.8 1014.1 2.2
09/08:00am 17.6 12.1 9.2 58 4.4 SSW 28 37 15 20 1014.5 1013.8 2.2
09/07:30am 16.9 13.4 10.1 64 3.6 SSW 19 24 10 13 1014.3 1013.6 2.2
09/07:00am 15.6 12.5 10.2 70 2.9 SSW 17 22 9 12 1013.5 1012.8 2.2
09/06:30am 14.8 11.7 10.4 75 2.3 SSW 17 24 9 13 1012.8 1012.1 2.2
09/06:00am 14.6 12.1 11.2 80 1.8 SW 15 19 8 10 1012.4 1011.6 2.2
09/05:30am 15.1 13.1 11.5 79 1.9 SW 13 19 7 10 1011.9 1011.1 2.2
09/05:00am 15.5 13.5 11.5 77 2.2 SW 13 17 7 9 1011.4 1010.6 2.2
09/04:30am 15.5 14.0 11.9 79 2.0 SW 11 13 6 7 1011.1 1010.3 2.2
09/04:00am 15.9 14.5 12.3 79 2.0 SW 11 13 6 7 1010.8 1010.0 2.2
09/03:30am 16.4 15.1 12.4 77 2.2 SW 11 13 6 7 1010.4 1009.6 2.2
09/03:00am 17.2 15.3 11.9 71 2.9 SW 13 19 7 10 1010.1 1009.3 2.2
09/02:30am 17.2 15.9 12.5 74 2.6 SSW 11 15 6 8 1009.8 1009.0 2.2
09/02:00am 17.7 16.5 14.0 79 2.1 WSW 13 15 7 8 1010.0 1009.2 2.2
09/01:30am 17.6 15.6 13.9 79 2.1 SSW 17 22 9 12 1009.8 1009.0 2.0
09/01:00am 18.1 16.5 14.0 77 2.4 SSW 15 22 8 12 1009.7 1008.9 1.8
09/12:30am 18.1 15.5 15.0 82 1.8 SW 22 32 12 17 1009.9 1009.1 1.8
09/12:00am 21.4 21.9 19.3 88 1.3 WNW 15 20 8 11 1008.7 1008.0 1.4
 
Date/Time
EDT
Temp
°C
App
Temp
°C
Dew
Point
°C
Rel
Hum
%
Delta-T
°C
Wind Press
QNH
hPa
Press
MSL
hPa
Rain since
9am
mm
Dir  Spd
km/h
Gust
km/h
Spd
kts
Gust
kts
08/11:30pm 21.3 21.4 19.2 88 1.3 WNW 17 22 9 12 1008.7 1008.0 1.4
08/11:00pm 21.1 21.2 19.2 89 1.2 NW 17 22 9 12 1008.4 1007.7 1.4
08/10:30pm 21.1 21.5 19.0 88 1.3 WNW 15 19 8 10 1008.1 1007.4 1.4
08/10:00pm 21.4 21.8 19.0 86 1.5 WNW 15 20 8 11 1007.6 1006.9 1.2
08/09:30pm 21.8 20.7 18.6 82 2.0 NW 22 30 12 16 1007.2 1006.5 1.0
08/09:00pm 22.9 20.4 18.0 74 3.1 WNW 28 39 15 21 1006.9 1006.2 0.8
08/08:30pm 24.0 23.4 18.9 73 3.3 W 20 28 11 15 1006.0 1005.2 0.8
08/08:00pm 23.8 23.4 19.3 76 2.9 WSW 20 33 11 18 1005.3 1004.5 0.8
08/07:49pm 23.5 21.4 19.0 76 2.9 SW 28 43 15 23 1004.6 1003.8 0.8
08/07:42pm 23.0 19.6 19.0 78 2.6 WSW 35 54 19 29 1004.4 1003.6 0.8
08/07:34pm 22.9 15.2 18.4 76 2.8 WSW 56 83 30 45 1004.7 1003.9 0.6
08/07:30pm 23.6 15.4 17.6 69 3.8 W 57 83 31 45 1004.5 1003.7 0.6
08/07:29pm 23.8 15.7 17.3 67 4.0 W 56 83 30 45 1004.3 1003.5 0.4
08/07:28pm 25.9 18.0 17.0 58 5.6 WNW 54 83 29 45 1004.2 1003.4 0.0
08/07:25pm 32.1 25.1 13.8 33 11.1 WNW 43 83 23 45 1003.5 1002.7 0.0
08/07:24pm 34.3 28.3 13.2 28 12.8 WNW 37 76 20 41 1003.1 1002.3 0.0
08/07:22pm 35.2 29.6 11.6 24 14.1 WNW 32 52 17 28 1002.6 1001.8 0.0
08/07:00pm 36.2 30.6 7.3 17 16.3 W 26 39 14 21 1001.3 1000.6 0.0
08/06:30pm 36.5 30.0 6.6 16 16.6 WNW 30 43 16 23 1000.8 1000.1 0.0
08/06:08pm 36.8 30.8 6.9 16 16.7 W 28 46 15 25 1000.3 999.6 0.0
08/06:00pm 37.8 31.2 7.7 16 17.2 WNW 32 44 17 24 1000.4 999.7 0.0
08/05:32pm 38.4 30.6 8.1 16 17.4 WNW 39 57 21 31 1000.1 999.4 0.0
08/05:30pm 37.8 29.7 8.6 17 16.8 WNW 41 57 22 31 1000.2 999.5 0.0
08/05:03pm 38.7 30.5 8.4 16 17.5 W 41 59 22 32 999.9 999.2 0.0
08/05:00pm 38.6 30.0 8.3 16 17.5 W 43 59 23 32 999.9 999.2 0.0
08/04:30pm 38.9 32.3 8.5 16 17.6 WNW 33 56 18 30 999.7 999.0 0.0
08/04:00pm 38.2 31.5 9.7 18 16.8 WNW 35 54 19 29 1000.1 999.4 0.0
08/03:43pm 37.7 31.3 9.3 18 16.5 WNW 33 54 18 29 1000.2 999.5 0.0
08/03:30pm 38.1 31.6 10.5 19 16.4 WNW 35 50 19 27 1000.1 999.4 0.0

Other Formats:

Comma delimited format used in spreadsheet applications
http://www.bom.gov.au/fwo/IDN60801/IDN60801.95715.axf

JavaScript Object Notation format (JSON) in row-major order
http://www.bom.gov.au/fwo/IDN60801/IDN60801.95715.json